• Join FlightAware (Why Join?)
  • Login
  • US Flag GB Flag 
17:00 EDT


 

Airport Tracker/Info


-or-


 

Live Flight TrackerFlight Track Log ✈ AAL1624 ✈ 19-Apr-2013 ✈ KORD - KMCI

Flight Track Log - Related Links

Times and Time Zones

All times are in EDT time to prevent confusion due to time zone crossing. See the AAL1624 flight status page for this flight to view local times or setup timezone preferences in your user account.

Time Position Orientation Groundspeed Altitude Reporting Facility
EDT Latitude Longitude Course Direction KTS MPH feet Rate Location/Type
23:39 41.9460 -87.9090 219° Southwest 160 184 1,700  Level FlightAware
23:39 41.9420 -87.9230 249° West 156 180 2,500 2,400 Climbing FlightAware
23:39 41.9390 -87.9560 263° West 192 221 3,500 1,920 Climbing FlightAware
23:40 41.9360 -87.9890 263° West 226 260 4,300 2,220 Climbing FlightAware
23:40 41.9340 -88.0090 262° West 232 267 5,000 3,060 Climbing FlightAware
23:41 41.9310 -88.0540 265° West 245 282 6,600 3,120 Climbing FlightAware
23:41 41.9280 -88.0910 264° West 252 290 7,900 3,240 Climbing FlightAware
23:41 41.9250 -88.1330 265° West 258 297 9,300 3,120 Climbing FlightAware
23:42 41.9200 -88.1980 264° West 273 314 11,300 2,520 Climbing FlightAware
23:43 41.9140 -88.2700 264° West 309 356 12,700 2,460 Climbing FlightAware
23:43 41.9070 -88.3550 264° West 330 380 14,800 3,060 Climbing FlightAware
23:44 41.9010 -88.4320 264° West 340 391 16,800 3,060 Climbing FlightAware
23:45 41.8950 -88.5370 266° West 356 410 19,200 2,700 Climbing FlightAware
23:46 41.8850 -88.6210 261° West 369 425 20,900 2,580 Climbing FlightAware
23:46 41.8610 -88.7100 250° West 376 433 22,700 1,560 Climbing FlightAware
23:47 41.8360 -88.8020 250° West 377 434 23,000 180 Climbing FlightAware
23:48 41.8100 -88.8990 250° West 376 433 23,000  Level FlightAware
23:48 41.7890 -88.9740 249° West 374 430 23,000  Level FlightAware
23:49 41.7620 -89.0740 250° West 374 430 23,000  Level FlightAware
23:50 41.7370 -89.1650 250° West 374 430 23,000 960 Level FlightAware
23:50 41.7130 -89.2520 250° West 382 440 24,300 1,860 Climbing FlightAware
23:51 41.6860 -89.3510 250° West 395 455 25,700 1,920 Climbing FlightAware
23:52 41.6600 -89.4460 250° West 404 465 27,100 1,860 Climbing FlightAware
23:52 41.6280 -89.5370 245° Southwest 417 480 28,200 1,620 Climbing FlightAware
23:53 41.5860 -89.6350 240° Southwest 425 489 29,400 1,560 Climbing FlightAware
23:54 41.5500 -89.7190 240° Southwest 430 495 30,300 1,680 Climbing FlightAware
23:55 41.5000 -89.8340 240° Southwest 429 494 31,800 1,800 Climbing FlightAware
23:55 41.4610 -89.9250 240° Southwest 428 493 33,000 1,500 Climbing FlightAware
23:56 41.4160 -90.0270 240° Southwest 432 497 34,000 660 Climbing FlightAware
23:57 41.3760 -90.1200 240° Southwest 433 498 34,000  Level FlightAware
23:57 41.3370 -90.2090 240° Southwest 432 497 34,000  Level FlightAware
23:58 41.2910 -90.3130 240° Southwest 431 496 34,000  Level FlightAware
23:59 41.2520 -90.4020 240° Southwest 429 494 34,000  Level FlightAware
23:59 41.2060 -90.5060 240° Southwest 429 494 34,000  Level FlightAware
00:00 41.1660 -90.5980 240° Southwest 429 494 34,000  Level FlightAware
00:01 41.1260 -90.6880 239° Southwest 429 494 34,000  Level FlightAware
00:02 41.0790 -90.7910 239° Southwest 433 498 34,000  Level FlightAware
00:02 41.0380 -90.8840 240° Southwest 434 499 34,000  Level FlightAware
00:03 40.9920 -90.9850 239° Southwest 436 502 34,000  Level FlightAware
00:04 40.9460 -91.0890 240° Southwest 437 503 34,000  Level FlightAware
00:04 40.9040 -91.1810 239° Southwest 436 502 34,000  Level FlightAware
00:05 40.8580 -91.2840 239° Southwest 435 501 34,000  Level FlightAware
00:06 40.8070 -91.3950 239° Southwest 432 497 34,000  Level FlightAware
00:07 40.7590 -91.5010 239° Southwest 430 495 34,000  Level FlightAware
00:07 40.7140 -91.5980 239° Southwest 427 491 34,000  Level FlightAware
00:08 40.6780 -91.6780 239° Southwest 427 491 34,000  Level FlightAware
00:09 40.6330 -91.7750 239° Southwest 425 489 34,000  Level FlightAware
00:10 40.5860 -91.8770 239° Southwest 423 487 34,000  Level FlightAware
00:10 40.5410 -91.9750 239° Southwest 423 487 34,000 -600 Level FlightAware
00:11 40.5050 -92.0510 238° Southwest 425 489 33,200 -1,320 Descending FlightAware
00:12 40.4440 -92.1820 239° Southwest 414 476 32,000 -1,260 Descending FlightAware
00:13 40.4040 -92.2670 238° Southwest 426 490 31,100 -1,200 Descending FlightAware
00:13 40.3650 -92.3500 238° Southwest 428 493 30,400 -1,200 Descending FlightAware
00:14 40.3150 -92.4560 238° Southwest 434 499 29,400 -1,380 Descending FlightAware
00:15 40.2750 -92.5410 238° Southwest 435 501 28,500 -1,440 Descending FlightAware
00:15 40.2310 -92.6350 239° Southwest 424 488 27,500 -1,440 Descending FlightAware
00:16 40.1850 -92.7310 238° Southwest 426 490 26,500 -1,440 Descending FlightAware
00:17 40.1380 -92.8300 238° Southwest 419 482 25,400 -1,500 Descending FlightAware
00:17 40.0970 -92.9160 238° Southwest 411 473 24,400 -1,380 Descending FlightAware
00:18 40.0590 -92.9950 238° Southwest 402 463 23,600 -1,320 Descending FlightAware
00:19 40.0130 -93.0900 238° Southwest 396 456 22,600 -1,320 Descending FlightAware
00:20 39.9740 -93.1710 238° Southwest 395 455 21,800 -1,200 Descending FlightAware
00:20 39.9360 -93.2510 238° Southwest 395 455 21,000 -1,200 Descending FlightAware
00:21 39.8920 -93.3400 237° Southwest 388 447 20,100 -1,200 Descending FlightAware
00:22 39.8540 -93.4190 238° Southwest 382 440 19,300 -1,200 Descending FlightAware
00:22 39.8110 -93.5070 238° Southwest 378 435 18,400 -1,140 Descending FlightAware
00:23 39.7760 -93.5800 238° Southwest 376 433 17,700 -1,140 Descending FlightAware
00:24 39.7380 -93.6560 237° Southwest 370 426 16,900 -1,080 Descending FlightAware
00:24 39.6970 -93.7400 238° Southwest 365 420 16,200 -1,020 Descending FlightAware
00:25 39.6600 -93.8150 237° Southwest 359 413 15,500 -1,080 Descending FlightAware
00:26 39.6200 -93.8960 237° Southwest 360 414 14,700 -1,020 Descending FlightAware
00:27 39.5840 -93.9680 237° Southwest 361 415 14,100 -1,020 Descending FlightAware
00:27 39.5480 -94.0400 237° Southwest 353 406 13,400 -1,020 Descending FlightAware
00:28 39.5070 -94.1200 236° Southwest 349 402 12,700 -1,020 Descending FlightAware
00:29 39.4720 -94.1890 237° Southwest 344 396 12,000 -660 Descending FlightAware
00:29 39.4330 -94.2660 237° Southwest 334 384 11,800 -180 Descending FlightAware
00:30 39.4010 -94.3280 236° Southwest 317 365 11,800 -600 Level FlightAware
00:31 39.3700 -94.3910 238° Southwest 309 356 11,000 -1,080 Descending FlightAware
00:31 39.3350 -94.4590 236° Southwest 279 321 10,300 -780 Descending FlightAware
00:32 39.3090 -94.5090 236° Southwest 253 291 9,900 -780 Descending FlightAware
00:33 39.2900 -94.5470 237° Southwest 231 266 9,400 -1,020 Descending FlightAware
00:33 39.2760 -94.5740 236° Southwest 220 253 9,000 -1,200 Descending FlightAware
00:34 39.2540 -94.6010 224° Southwest 231 266 8,300 -1,500 Descending FlightAware
00:34 39.2370 -94.6050 190° South 239 275 7,900 -1,620 Descending FlightAware
00:34 39.2210 -94.6080 188° South 239 275 7,500 -1,080 Descending FlightAware
00:34 39.1930 -94.6130 188° South 227 261 7,200 -660 Descending FlightAware
00:35 39.1650 -94.6180 188° South 210 242 6,900 -900 Descending FlightAware
00:35 39.1350 -94.6220 186° South 204 235 6,300 -1,140 Descending FlightAware
00:36 39.1150 -94.6250 187° South 202 232 5,900 -1,140 Descending FlightAware
00:36 39.0870 -94.6300 188° South 199 229 5,300 -1,140 Descending FlightAware
00:37 39.0640 -94.6340 188° South 193 222 4,900 -900 Descending FlightAware
00:37 39.0540 -94.6450 221° Southwest 179 206 4,700 -840 Descending FlightAware
00:37 39.0510 -94.6570 252° West 173 199 4,500 -420 Descending FlightAware
00:38 39.0510 -94.6870 270° West 174 200 4,400 -780 Descending FlightAware
00:38 39.0667 -94.7167 270° West 174 200 3,700 -840 Descending Kansas City TRACON
00:39 39.0942 -94.7497 317° Northwest 176 203 3,200 -420 Descending Kansas City Center
00:40 39.1403 -94.7519 358° North 157 181 3,000 -120 Descending Kansas City Center
00:41 39.1797 -94.7392 14° North 154 177 3,000 -300 Level Kansas City Center
00:42 39.2186 -94.7281 12° North 150 173 2,400 -720 Descending Kansas City Center
00:43 39.2553 -94.7172 13° North 125 144 1,600 -720 Descending Kansas City Center
00:44 39.2933 -94.7061 13° North 129 148 1,000 -600 Descending Kansas City Center